Time;durP1;ratioP1;P1;durP2;ratioP2;P2;SDS_P1;SDS_P2;PMS_P1;PMS_P2;Temp;Humidity;BMP_temperature;BMP_pressure;BME280_temperature;BME280_humidity;BME280_pressure;Samples;Min_cycle;Max_cycle;Signal;HPM_P1;HPM_P2
2021/03/06 00:01:03;;;;;;;8.33;4.13;;;;;;;-2.22;72.23;101148.77;124705;1105;104283;-80
2021/03/06 00:03:31;;;;;;;9.23;4.27;;;;;;;-2.25;72.02;101135.02;124698;1106;104130;-80
2021/03/06 00:05:58;;;;;;;8.93;4.13;;;;;;;-2.27;72.46;101152.86;124622;1105;104158;-80
2021/03/06 00:08:25;;;;;;;7.07;4.00;;;;;;;-2.28;72.07;101147.70;124736;1105;104179;-80
2021/03/06 00:10:55;;;;;;;6.07;3.50;;;;;;;-2.29;72.34;101157.05;124710;1105;104156;-80
2021/03/06 00:13:25;;;;;;;9.00;4.50;;;;;;;-2.29;72.30;101156.19;124734;1105;104136;-80
2021/03/06 00:15:54;;;;;;;6.87;3.80;;;;;;;-2.32;72.13;101153.53;124739;1105;104153;-79
2021/03/06 00:18:21;;;;;;;6.27;3.63;;;;;;;-2.34;72.55;101150.89;124715;1105;104184;-79
2021/03/06 00:20:49;;;;;;;6.97;3.60;;;;;;;-2.34;72.50;101155.13;124688;1105;104274;-79
2021/03/06 00:23:18;;;;;;;9.13;4.47;;;;;;;-2.36;72.20;101157.64;124716;1105;104197;-79
2021/03/06 00:25:45;;;;;;;10.27;4.70;;;;;;;-2.37;72.15;101161.02;124711;1105;101700;-79
2021/03/06 00:28:12;;;;;;;9.00;4.77;;;;;;;-2.36;72.83;101157.64;124702;1105;104156;-79
2021/03/06 00:30:40;;;;;;;9.60;5.55;;;;;;;-2.37;72.38;101149.92;124611;1105;104162;-79
2021/03/06 00:33:07;;;;;;;10.77;5.10;;;;;;;-2.39;72.77;101154.12;124712;1105;104201;-79
2021/03/06 00:35:34;;;;;;;10.90;4.67;;;;;;;-2.39;72.36;101149.88;124701;1105;104156;-80
2021/03/06 00:38:01;;;;;;;11.10;6.08;;;;;;;-2.37;72.34;101149.92;124729;1105;104121;-80
2021/03/06 00:40:29;;;;;;;11.45;5.17;;;;;;;-2.39;72.38;101149.88;124683;1106;104617;-80
2021/03/06 00:42:57;;;;;;;10.50;5.00;;;;;;;-2.40;72.33;101160.05;124681;1106;104219;-80
2021/03/06 00:45:24;;;;;;;9.23;4.83;;;;;;;-2.41;72.92;101158.31;124674;1105;104236;-80
2021/03/06 00:47:53;;;;;;;9.40;5.07;;;;;;;-2.42;72.42;101159.13;124717;1103;104156;-80
2021/03/06 00:50:40;;;;;;;12.30;5.40;;;;;;;-2.43;72.99;101160.81;124709;1105;104258;-79
2021/03/06 00:53:11;;;;;;;7.87;4.53;;;;;;;-2.44;72.95;101157.39;124688;1105;104152;-80
2021/03/06 00:55:39;;;;;;;8.00;4.87;;;;;;;-2.45;72.40;101155.66;124703;1102;104180;-80
2021/03/06 00:58:07;;;;;;;9.83;5.13;;;;;;;-2.44;72.64;101143.75;124762;1105;104140;-79
2021/03/06 01:00:35;;;;;;;10.70;5.87;;;;;;;-2.44;72.65;101151.41;124661;1106;104271;-80
2021/03/06 01:03:04;;;;;;;11.20;5.27;;;;;;;-2.46;72.63;101146.25;124784;1105;101769;-79
2021/03/06 01:05:31;;;;;;;8.47;5.23;;;;;;;-2.47;72.84;101139.41;124688;1105;104315;-79
2021/03/06 01:07:58;;;;;;;10.33;4.77;;;;;;;-2.50;73.13;101144.41;124620;1105;104304;-79
2021/03/06 01:10:32;;;;;;;7.63;5.07;;;;;;;-2.52;73.52;101146.02;124650;1105;104185;-79
2021/03/06 01:12:59;;;;;;;11.10;5.90;;;;;;;-2.51;73.32;101140.12;124631;1105;104127;-80
2021/03/06 01:15:26;;;;;;;9.43;5.53;;;;;;;-2.51;72.80;101142.68;124763;1106;104232;-79
2021/03/06 01:17:53;;;;;;;9.43;5.70;;;;;;;-2.51;73.46;101140.12;124743;1105;104214;-79
2021/03/06 01:20:21;;;;;;;11.50;5.60;;;;;;;-2.52;73.52;101148.57;124656;1105;103302;-79
2021/03/06 01:22:48;;;;;;;9.77;5.80;;;;;;;-2.55;72.79;101145.92;124683;1105;104123;-80
2021/03/06 01:25:16;;;;;;;11.63;5.45;;;;;;;-2.56;73.87;101150.97;124714;1105;104235;-79
2021/03/06 01:27:43;;;;;;;12.10;6.43;;;;;;;-2.59;74.00;101154.30;124651;1106;104288;-79
2021/03/06 01:30:11;;;;;;;10.23;5.90;;;;;;;-2.63;73.48;101152.45;124668;1106;104149;-79
2021/03/06 01:32:39;;;;;;;12.07;6.63;;;;;;;-2.65;73.50;101154.09;124666;1105;104232;-79
2021/03/06 01:35:09;;;;;;;12.23;7.10;;;;;;;-2.68;74.19;101153.98;124637;1102;104213;-79
2021/03/06 01:37:37;;;;;;;10.30;6.40;;;;;;;-2.72;73.71;101152.11;124655;1105;104392;-79
2021/03/06 01:40:11;;;;;;;9.87;6.00;;;;;;;-2.74;73.69;101141.84;124729;1105;104088;-79
2021/03/06 01:42:39;;;;;;;10.27;6.10;;;;;;;-2.76;74.41;101151.14;124789;1105;104273;-79
2021/03/06 01:45:08;;;;;;;13.33;6.80;;;;;;;-2.77;74.05;101158.74;124714;1105;104152;-79
2021/03/06 01:47:37;;;;;;;11.57;7.00;;;;;;;-2.78;74.11;101151.91;124794;1105;104284;-79
2021/03/06 01:50:07;;;;;;;12.20;7.25;;;;;;;-2.79;74.51;101150.16;124744;1105;104121;-79
2021/03/06 01:52:34;;;;;;;13.90;7.10;;;;;;;-2.81;73.57;101145.01;124688;1106;104175;-80
2021/03/06 01:55:04;;;;;;;13.13;7.33;;;;;;;-2.81;74.48;101151.80;124661;1102;104242;-79
2021/03/06 01:57:31;;;;;;;13.17;7.50;;;;;;;-2.82;74.44;101145.82;124646;1106;105093;-79
2021/03/06 01:59:58;;;;;;;14.23;7.97;;;;;;;-2.81;74.03;101154.34;124683;1106;104300;-79
2021/03/06 02:02:26;;;;;;;14.00;7.57;;;;;;;-2.82;73.85;101153.48;124680;1105;104258;-79
2021/03/06 02:04:54;;;;;;;16.57;7.80;;;;;;;-2.84;74.22;101152.56;124695;1105;104156;-79
2021/03/06 02:07:21;;;;;;;12.03;7.25;;;;;;;-2.86;74.50;101156.74;124673;1105;104272;-79
2021/03/06 02:09:48;;;;;;;14.37;8.80;;;;;;;-2.88;74.83;101144.71;124603;1106;104136;-79
2021/03/06 02:12:40;;;;;;;11.97;7.40;;;;;;;-2.87;74.45;101147.35;124675;1106;104229;-79
2021/03/06 02:15:24;;;;;;;14.50;8.13;;;;;;;-2.87;74.45;101146.45;124669;1102;104111;-79
2021/03/06 02:18:18;;;;;;;16.90;8.40;;;;;;;-2.87;74.43;101143.89;124681;1102;104248;-79
2021/03/06 02:21:15;;;;;;;13.10;7.70;;;;;;;-2.89;74.58;101148.08;124695;1105;104656;-79
2021/03/06 02:24:15;;;;;;;13.87;7.53;;;;;;;-2.90;74.05;101142.11;124596;1105;104277;-79
2021/03/06 02:27:16;;;;;;;15.33;8.00;;;;;;;-2.91;74.68;101148.02;124656;1102;104628;-79
2021/03/06 02:30:01;;;;;;;14.10;7.43;;;;;;;-2.92;74.43;101153.08;124693;1102;104226;-79
2021/03/06 02:32:35;;;;;;;14.13;8.27;;;;;;;-2.93;74.55;101159.86;124718;1102;103636;-79
2021/03/06 02:35:08;;;;;;;18.83;8.70;;;;;;;-2.93;74.75;101161.55;124676;1106;104146;-79
2021/03/06 02:37:42;;;;;;;13.77;7.70;;;;;;;-2.93;74.52;101159.00;124687;1105;104169;-79
2021/03/06 02:40:12;;;;;;;19.50;8.37;;;;;;;-2.94;74.19;101167.47;124725;1105;103973;-79
2021/03/06 02:42:42;;;;;;;14.53;8.33;;;;;;;-2.96;74.65;101161.44;124702;1106;104155;-79
2021/03/06 02:45:10;;;;;;;18.47;8.57;;;;;;;-2.98;74.32;101166.49;124754;1103;104363;-79
2021/03/06 02:47:38;;;;;;;14.53;8.30;;;;;;;-2.99;74.79;101161.34;124759;1105;104687;-79
2021/03/06 02:50:09;;;;;;;16.37;8.60;;;;;;;-3.00;74.05;101160.47;124744;1105;102139;-80
2021/03/06 02:52:37;;;;;;;16.07;8.70;;;;;;;-2.99;74.53;101161.34;124721;1102;106657;-79
2021/03/06 02:55:10;;;;;;;15.53;8.27;;;;;;;-2.97;74.07;101177.57;124688;1103;104211;-79
2021/03/06 02:57:52;;;;;;;15.87;8.63;;;;;;;-2.99;74.43;101180.07;124746;1105;102861;-78
2021/03/06 03:00:31;;;;;;;16.10;8.10;;;;;;;-2.98;74.58;101186.91;124632;1106;104172;-79
2021/03/06 03:03:16;;;;;;;15.17;8.93;;;;;;;-3.00;74.49;101180.88;124606;1105;104179;-79
2021/03/06 03:06:10;;;;;;;14.67;8.43;;;;;;;-3.02;74.58;101177.41;124656;1105;104201;-79
2021/03/06 03:08:53;;;;;;;14.33;8.17;;;;;;;-3.05;74.62;101183.27;124708;1102;104146;-79
2021/03/06 03:11:28;;;;;;;14.13;8.90;;;;;;;-3.07;74.65;101184.87;124719;1106;104217;-79
2021/03/06 03:13:58;;;;;;;16.57;9.37;;;;;;;-3.07;74.06;101194.20;124661;1106;104121;-79
2021/03/06 03:16:34;;;;;;;15.07;8.50;;;;;;;-3.08;74.63;101195.89;124735;1105;104139;-79
2021/03/06 03:19:09;;;;;;;17.45;8.75;;;;;;;-3.10;74.58;101194.09;124688;1103;104159;-79
2021/03/06 03:21:43;;;;;;;17.05;8.40;;;;;;;-3.12;74.71;101191.48;124687;1105;104233;-79
2021/03/06 03:24:17;;;;;;;17.83;9.43;;;;;;;-3.13;74.66;101202.50;124675;1106;104126;-79
2021/03/06 03:26:47;;;;;;;14.57;8.77;;;;;;;-3.14;74.71;101203.32;124706;1105;105314;-79
2021/03/06 03:29:16;;;;;;;17.97;9.20;;;;;;;-3.13;74.37;101209.30;124668;1105;105065;-79
2021/03/06 03:31:46;;;;;;;20.15;9.80;;;;;;;-3.15;74.82;101200.71;124695;1105;104227;-79
2021/03/06 03:34:16;;;;;;;16.43;10.03;;;;;;;-3.15;74.51;101205.81;124672;1105;104288;-79
2021/03/06 03:36:45;;;;;;;18.90;9.40;;;;;;;-3.17;74.08;101213.41;124675;1105;103027;-79
2021/03/06 03:39:13;;;;;;;16.17;9.40;;;;;;;-3.18;74.64;101219.33;124735;1105;104206;-79
2021/03/06 03:41:40;;;;;;;16.07;9.50;;;;;;;-3.20;74.49;101225.19;124688;1104;104188;-79
2021/03/06 03:44:08;;;;;;;20.17;9.93;;;;;;;-3.21;74.50;101221.77;124668;1106;104303;-79
2021/03/06 03:46:39;;;;;;;17.00;9.17;;;;;;;-3.20;74.35;101236.27;124625;1105;102912;-79
2021/03/06 03:49:14;;;;;;;20.97;9.90;;;;;;;-3.23;74.41;101233.59;124692;1105;104220;-79
2021/03/06 03:51:42;;;;;;;19.47;10.07;;;;;;;-3.24;74.19;101236.93;124673;1105;104589;-79
2021/03/06 03:54:10;;;;;;;17.13;9.60;;;;;;;-3.23;74.27;101237.80;124653;1105;105379;-79
2021/03/06 03:56:37;;;;;;;17.90;9.77;;;;;;;-3.25;74.23;101237.74;124705;1105;104765;-79
2021/03/06 03:59:05;;;;;;;21.90;9.63;;;;;;;-3.26;74.47;101235.13;124678;1106;104118;-79
2021/03/06 04:01:43;;;;;;;20.00;10.40;;;;;;;-3.29;74.14;101238.44;124711;1105;104208;-79
2021/03/06 04:04:27;;;;;;;18.80;9.00;;;;;;;-3.31;74.33;101240.06;124641;1105;104253;-79
2021/03/06 04:06:59;;;;;;;19.93;9.30;;;;;;;-3.33;74.61;101241.69;124671;1105;103947;-79
2021/03/06 04:09:27;;;;;;;22.17;9.37;;;;;;;-3.30;74.92;101243.48;124662;1105;104206;-79
2021/03/06 04:11:55;;;;;;;16.93;8.70;;;;;;;-3.31;74.45;101246.84;124636;1106;104124;-79
2021/03/06 04:14:22;;;;;;;19.97;10.00;;;;;;;-3.33;74.77;101244.23;124742;1105;104127;-79
2021/03/06 04:16:49;;;;;;;19.77;9.10;;;;;;;-3.32;74.42;101247.66;124727;1105;104603;-79
2021/03/06 04:19:17;;;;;;;17.30;8.53;;;;;;;-3.33;74.35;101251.89;124690;1105;104133;-79
2021/03/06 04:21:44;;;;;;;15.97;8.90;;;;;;;-3.35;74.84;101258.61;124761;1105;104232;-79
2021/03/06 04:24:11;;;;;;;19.57;8.70;;;;;;;-3.35;74.41;101263.72;124779;1105;104172;-79
2021/03/06 04:26:50;;;;;;;15.60;8.10;;;;;;;-3.38;74.11;101259.37;124730;1105;104140;-79
2021/03/06 04:29:19;;;;;;;19.23;8.87;;;;;;;-3.40;74.67;101253.34;124762;1105;104207;-79
2021/03/06 04:31:47;;;;;;;19.67;8.97;;;;;;;-3.42;74.07;101259.16;124745;1105;104704;-80
2021/03/06 04:34:15;;;;;;;19.83;8.93;;;;;;;-3.44;73.73;101258.23;124734;1105;104146;-79
2021/03/06 04:36:43;;;;;;;15.27;7.93;;;;;;;-3.46;74.36;101264.95;124740;1105;104153;-79
2021/03/06 04:39:11;;;;;;;20.10;9.47;;;;;;;-3.49;74.02;101275.03;124702;1105;104249;-79
2021/03/06 04:41:38;;;;;;;15.87;8.40;;;;;;;-3.51;74.93;101276.66;124773;1106;104290;-79
2021/03/06 04:44:06;;;;;;;17.17;8.97;;;;;;;-3.53;74.33;101280.82;124717;1105;104335;-79
2021/03/06 04:46:33;;;;;;;18.27;8.83;;;;;;;-3.54;74.56;101279.95;124745;1105;104238;-79
2021/03/06 04:49:04;;;;;;;18.00;8.87;;;;;;;-3.52;74.38;101283.43;124767;1105;104230;-79
2021/03/06 04:51:31;;;;;;;16.33;8.70;;;;;;;-3.49;74.10;101286.10;124780;1105;104210;-79
2021/03/06 04:53:58;;;;;;;16.30;8.30;;;;;;;-3.46;74.15;101287.91;124716;1105;104181;-79
2021/03/06 04:56:25;;;;;;;15.13;8.37;;;;;;;-3.44;74.61;101283.73;124646;1105;104268;-79
2021/03/06 04:58:52;;;;;;;17.77;8.03;;;;;;;-3.42;74.93;101282.11;124689;1105;104101;-79
2021/03/06 05:01:20;;;;;;;17.00;8.45;;;;;;;-3.40;74.39;101286.49;124737;1106;104121;-79
2021/03/06 05:03:47;;;;;;;17.30;8.13;;;;;;;-3.38;74.82;101278.91;124733;1105;104146;-79
2021/03/06 05:06:14;;;;;;;19.60;9.47;;;;;;;-3.35;73.93;101273.91;124724;1105;104270;-80
2021/03/06 05:08:41;;;;;;;15.53;8.03;;;;;;;-3.32;74.78;101284.23;124700;1106;104448;-80
2021/03/06 05:11:08;;;;;;;16.23;8.10;;;;;;;-3.28;74.22;101291.20;124829;1106;104146;-79
2021/03/06 05:13:36;;;;;;;14.50;8.63;;;;;;;-3.23;74.69;101292.28;124792;1106;104184;-79
2021/03/06 05:16:04;;;;;;;15.60;7.85;;;;;;;-3.21;74.14;101285.55;124710;1106;104323;-79
2021/03/06 05:18:32;;;;;;;15.50;8.10;;;;;;;-3.17;74.35;101284.86;124791;1105;104258;-79
2021/03/06 05:20:59;;;;;;;14.93;7.97;;;;;;;-3.14;74.27;101279.88;124781;1106;104200;-79
2021/03/06 05:23:27;;;;;;;18.73;9.00;;;;;;;-3.08;74.77;101286.88;124704;1105;104115;-78
2021/03/06 05:25:54;;;;;;;18.20;8.40;;;;;;;-3.03;74.52;101281.98;124668;1105;104173;-78
2021/03/06 05:28:22;;;;;;;16.20;9.00;;;;;;;-2.93;74.26;101278.96;124664;1106;104191;-78
2021/03/06 05:30:51;;;;;;;16.10;8.00;;;;;;;-2.83;73.99;101281.94;124644;1106;104293;-79
2021/03/06 05:33:19;;;;;;;19.53;8.47;;;;;;;-2.67;73.61;101280.84;124736;1105;104213;-79
2021/03/06 05:35:47;;;;;;;16.20;7.77;;;;;;;-2.52;74.12;101281.39;124688;1105;104325;-79
2021/03/06 05:38:14;;;;;;;16.77;7.80;;;;;;;-2.37;73.54;101286.20;124692;1105;104130;-79
2021/03/06 05:40:44;;;;;;;17.17;8.10;;;;;;;-2.26;73.18;101292.58;124698;1105;104188;-79
2021/03/06 05:43:12;;;;;;;17.03;7.70;;;;;;;-2.19;72.74;101298.77;124619;1106;104222;-78
2021/03/06 05:45:44;;;;;;;17.20;7.90;;;;;;;-2.13;72.38;101299.02;124704;1105;105044;-79
2021/03/06 05:48:12;;;;;;;16.63;8.27;;;;;;;-2.07;72.23;101299.22;124756;1105;104201;-79
2021/03/06 05:50:39;;;;;;;16.43;8.27;;;;;;;-1.99;72.69;101296.92;124678;1103;104156;-79
2021/03/06 05:53:10;;;;;;;15.43;7.53;;;;;;;-1.91;72.14;101295.52;124704;1105;104274;-79
2021/03/06 05:55:41;;;;;;;18.40;8.13;;;;;;;-1.82;72.45;101293.27;124683;1105;104063;-79
2021/03/06 05:58:09;;;;;;;17.40;7.50;;;;;;;-1.77;72.63;101306.23;124758;1105;104111;-79
2021/03/06 06:00:41;;;;;;;16.70;8.17;;;;;;;-1.71;71.85;101309.00;124753;1105;104233;-79
2021/03/06 06:03:14;;;;;;;17.73;7.70;;;;;;;-1.65;71.70;101301.52;124763;1105;104204;-80
2021/03/06 06:05:41;;;;;;;17.85;8.15;;;;;;;-1.58;71.64;101308.61;124852;1106;104227;-79
2021/03/06 06:08:09;;;;;;;14.37;7.30;;;;;;;-1.53;71.54;101314.73;124699;1105;104329;-79
2021/03/06 06:10:36;;;;;;;15.93;7.33;;;;;;;-1.47;71.66;101314.94;124731;1105;104248;-79
2021/03/06 06:13:03;;;;;;;13.93;6.80;;;;;;;-1.32;71.14;101320.56;124746;1105;104737;-80
2021/03/06 06:15:30;;;;;;;12.97;6.77;;;;;;;-1.18;71.31;101322.72;124816;1105;105344;-79
2021/03/06 06:17:58;;;;;;;15.13;7.07;;;;;;;-1.04;70.85;101329.16;124818;1105;104238;-79
2021/03/06 06:20:25;;;;;;;15.37;6.97;;;;;;;-0.95;70.75;101326.88;124734;1105;105547;-79
2021/03/06 06:23:13;;;;;;;12.27;6.50;;;;;;;-0.85;70.55;101323.80;124779;1105;104118;-79
2021/03/06 06:25:47;;;;;;;16.93;7.50;;;;;;;-0.83;70.31;101332.39;124805;1105;104281;-79
2021/03/06 06:28:23;;;;;;;14.67;7.47;;;;;;;-0.76;70.49;101334.31;124748;1105;103129;-79
2021/03/06 06:31:12;;;;;;;15.75;7.25;;;;;;;-0.75;70.28;101340.30;124472;1105;104213;-79
2021/03/06 06:33:40;;;;;;;14.13;7.10;;;;;;;-0.70;69.95;101344.77;124580;1106;104264;-79
2021/03/06 06:36:07;;;;;;;16.90;8.10;;;;;;;-0.16;69.63;101347.23;124666;1103;104182;-79
2021/03/06 06:38:42;;;;;;;13.97;7.30;;;;;;;-0.04;69.05;101351.83;124684;1105;103960;-80
2021/03/06 06:41:10;;;;;;;14.20;7.27;;;;;;;0.01;69.18;101349.42;124685;1105;104149;-79
2021/03/06 06:43:37;;;;;;;15.97;7.20;;;;;;;-0.02;68.94;101353.61;124642;1105;104355;-79
2021/03/06 06:46:04;;;;;;;15.30;7.80;;;;;;;0.01;69.29;101357.98;124688;1105;104185;-79
2021/03/06 06:48:32;;;;;;;16.83;7.47;;;;;;;-0.07;68.62;101365.44;124845;1105;104206;-79
2021/03/06 06:51:07;;;;;;;13.60;7.17;;;;;;;-0.02;68.89;101366.42;124667;1105;104210;-79
2021/03/06 06:53:34;;;;;;;14.00;7.05;;;;;;;0.83;69.80;101364.44;124683;1105;104220;-79
2021/03/06 06:56:01;;;;;;;12.65;6.45;;;;;;;1.36;67.61;101359.73;124645;1105;104294;-79
2021/03/06 06:58:42;;;;;;;14.10;7.40;;;;;;;1.66;67.60;101355.28;124657;1105;104390;-80
2021/03/06 07:01:38;;;;;;;12.47;6.47;;;;;;;3.92;66.76;101354.00;124650;1106;104226;-80
2021/03/06 07:04:08;;;;;;;10.83;6.07;;;;;;;6.62;64.21;101341.30;124733;1106;105044;-80
2021/03/06 07:06:36;;;;;;;11.07;6.23;;;;;;;7.53;59.69;101339.53;124701;1105;104220;-80
2021/03/06 07:09:15;;;;;;;11.87;6.60;;;;;;;7.06;59.25;101342.20;124756;1105;103387;-80
2021/03/06 07:11:43;;;;;;;10.37;6.63;;;;;;;6.55;58.84;101344.75;124612;1105;104213;-79
2021/03/06 07:14:10;;;;;;;14.47;8.60;;;;;;;6.28;58.62;101347.27;124747;1106;105245;-79
2021/03/06 07:17:00;;;;;;;17.60;9.67;;;;;;;6.13;58.49;101355.01;124788;1105;101782;-79
2021/03/06 07:19:30;;;;;;;13.50;7.07;;;;;;;5.94;58.88;101354.94;124747;1106;104188;-79
2021/03/06 07:21:59;;;;;;;12.27;6.80;;;;;;;6.21;58.51;101353.30;124779;1105;104595;-79
2021/03/06 07:24:28;;;;;;;12.27;7.00;;;;;;;6.21;57.88;101358.48;124725;1105;103989;-79
2021/03/06 07:26:56;;;;;;;12.50;7.30;;;;;;;6.30;57.53;101353.34;124742;1106;104191;-79
2021/03/06 07:29:24;;;;;;;14.33;8.00;;;;;;;6.51;56.50;101353.39;124741;1106;104213;-79
2021/03/06 07:31:53;;;;;;;14.07;8.07;;;;;;;6.19;56.28;101350.70;124738;1105;104255;-79
2021/03/06 07:34:25;;;;;;;13.20;7.60;;;;;;;6.53;56.99;101351.66;124728;1105;104213;-79
2021/03/06 07:37:19;;;;;;;14.00;7.37;;;;;;;7.95;55.96;101348.08;124677;1106;104179;-80
2021/03/06 07:39:50;;;;;;;12.77;7.10;;;;;;;8.02;54.62;101350.64;124750;1105;104239;-80
2021/03/06 07:42:30;;;;;;;13.87;7.40;;;;;;;9.43;54.00;101347.95;124752;1106;104177;-80
2021/03/06 07:44:57;;;;;;;11.23;7.70;;;;;;;11.15;53.05;101329.16;124780;1105;104159;-80
2021/03/06 07:47:32;;;;;;;9.57;6.77;;;;;;;12.84;50.34;101337.88;124706;1105;104223;-80
2021/03/06 07:50:03;;;;;;;12.47;7.15;;;;;;;14.15;49.06;101329.13;124781;1106;104150;-80
2021/03/06 07:52:32;;;;;;;13.50;8.53;;;;;;;15.45;46.83;101320.56;124773;1106;104121;-80
2021/03/06 07:55:03;;;;;;;10.77;7.20;;;;;;;16.48;45.31;101317.59;124814;1106;104114;-80
2021/03/06 07:57:30;;;;;;;11.47;6.10;;;;;;;17.33;43.75;101311.45;124769;1105;102539;-81
2021/03/06 07:59:57;;;;;;;10.53;6.67;;;;;;;17.32;42.13;101315.02;124693;1105;104197;-80
2021/03/06 08:02:35;;;;;;;11.93;6.70;;;;;;;17.07;41.59;101314.36;124666;1105;104284;-80
2021/03/06 08:05:28;;;;;;;10.93;7.10;;;;;;;16.74;41.14;101322.73;124707;1105;104741;-80
2021/03/06 08:07:55;;;;;;;11.90;7.13;;;;;;;15.74;40.82;101330.06;124770;1105;102970;-79
2021/03/06 08:10:23;;;;;;;10.03;6.90;;;;;;;15.44;40.81;101332.00;124809;1105;104169;-79
2021/03/06 08:12:50;;;;;;;10.93;7.07;;;;;;;14.83;40.98;101334.04;124745;1105;104259;-79
2021/03/06 08:15:27;;;;;;;11.70;7.10;;;;;;;14.35;41.00;101334.63;124651;1105;104557;-79
2021/03/06 08:17:56;;;;;;;11.40;7.57;;;;;;;13.56;40.82;101332.55;124775;1105;104211;-79
2021/03/06 08:20:29;;;;;;;13.10;8.00;;;;;;;12.70;41.48;101340.81;124734;1105;104220;-79
2021/03/06 08:23:30;;;;;;;12.87;8.03;;;;;;;12.06;41.51;101342.26;124697;1105;105344;-79
2021/03/06 08:26:19;;;;;;;12.83;8.37;;;;;;;11.43;42.93;101332.98;124424;1109;102444;-79
2021/03/06 08:28:46;;;;;;;16.70;8.90;;;;;;;10.58;43.11;101337.86;124381;1109;104361;-79
2021/03/06 08:31:36;;;;;;;14.47;8.57;;;;;;;9.98;43.40;101340.39;124448;1109;104232;-79
2021/03/06 08:34:22;;;;;;;14.33;8.50;;;;;;;9.19;43.40;101349.06;124446;1109;104383;-79
2021/03/06 08:36:49;;;;;;;12.93;8.00;;;;;;;8.58;44.95;101357.31;124356;1109;104284;-79
2021/03/06 08:39:18;;;;;;;14.05;8.80;;;;;;;8.15;45.76;101356.66;124414;1109;104323;-79
2021/03/06 08:41:45;;;;;;;16.17;9.53;;;;;;;8.50;46.67;101355.64;124469;1109;104441;-79
2021/03/06 08:44:12;;;;;;;14.13;8.80;;;;;;;9.39;45.60;101343.66;124417;1109;104235;-79
2021/03/06 08:46:42;;;;;;;14.65;9.25;;;;;;;9.62;45.49;101341.68;124386;1109;104220;-79
2021/03/06 08:49:10;;;;;;;14.60;8.57;;;;;;;10.28;45.12;101347.00;124418;1109;104178;-80
2021/03/06 08:51:37;;;;;;;14.63;7.30;;;;;;;11.33;45.35;101341.03;124469;1109;104292;-80
2021/03/06 08:54:06;;;;;;;15.78;8.58;;;;;;;11.92;44.28;101345.14;124458;1109;104357;-80
2021/03/06 08:56:39;;;;;;;16.57;8.30;;;;;;;13.15;43.41;101333.61;124530;1109;104207;-80
2021/03/06 08:59:06;;;;;;;15.10;8.00;;;;;;;14.23;42.18;101340.27;124565;1109;104741;-80
2021/03/06 09:01:35;;;;;;;12.17;7.80;;;;;;;14.95;41.07;101338.05;124701;1106;104323;-80
2021/03/06 09:04:03;;;;;;;11.80;7.23;;;;;;;15.37;40.29;101330.47;125182;1105;104229;-80
2021/03/06 09:06:37;;;;;;;12.10;6.85;;;;;;;15.97;39.28;101326.57;124849;1102;104191;-80
2021/03/06 09:09:09;;;;;;;9.30;6.30;;;;;;;16.46;38.14;101325.56;124941;1105;104179;-80
2021/03/06 09:11:54;;;;;;;10.60;6.53;;;;;;;16.56;37.82;101315.53;124899;1106;104169;-80
2021/03/06 09:14:21;;;;;;;12.67;6.73;;;;;;;16.59;37.50;101326.80;124963;1105;102731;-80
2021/03/06 09:16:50;;;;;;;10.17;6.67;;;;;;;16.88;36.41;101316.91;124873;1105;104379;-80
2021/03/06 09:19:29;;;;;;;10.13;6.33;;;;;;;17.19;36.07;101319.95;124888;1105;104126;-80
2021/03/06 09:22:03;;;;;;;10.80;7.03;;;;;;;17.49;35.72;101320.41;124854;1105;104203;-80
2021/03/06 09:24:46;;;;;;;9.07;6.10;;;;;;;17.81;35.63;101320.80;124885;1106;104664;-80
2021/03/06 09:27:14;;;;;;;12.73;6.70;;;;;;;18.21;35.33;101316.33;124969;1105;104267;-80
2021/03/06 09:29:46;;;;;;;11.53;6.40;;;;;;;18.57;33.83;101317.22;124920;1105;104144;-80
2021/03/06 09:32:14;;;;;;;10.80;6.47;;;;;;;18.64;33.90;101302.80;125013;1105;101806;-80
2021/03/06 09:34:45;;;;;;;8.77;5.67;;;;;;;18.39;33.10;101303.11;124838;1102;104255;-80
2021/03/06 09:37:15;;;;;;;10.10;5.73;;;;;;;18.19;32.51;101304.98;124958;1105;104133;-79
2021/03/06 09:39:42;;;;;;;9.30;6.17;;;;;;;18.10;32.71;101304.47;124910;1105;104372;-80
2021/03/06 09:42:16;;;;;;;10.87;5.90;;;;;;;18.24;32.46;101302.98;124865;1105;104300;-80
2021/03/06 09:44:50;;;;;;;9.83;6.23;;;;;;;18.42;32.04;101297.67;124770;1105;103960;-79
2021/03/06 09:47:24;;;;;;;10.27;6.40;;;;;;;18.65;31.21;101298.37;124704;1105;105104;-79
2021/03/06 09:49:55;;;;;;;12.17;7.73;;;;;;;18.62;31.34;101296.70;124678;1103;104281;-79
2021/03/06 09:52:33;;;;;;;12.43;6.40;;;;;;;18.30;31.02;101303.53;124780;1106;104185;-80
2021/03/06 09:55:01;;;;;;;10.43;5.77;;;;;;;17.85;30.77;101298.63;124756;1105;103697;-79
2021/03/06 09:57:28;;;;;;;9.63;6.67;;;;;;;17.44;29.86;101306.58;124693;1103;104185;-80
2021/03/06 09:59:56;;;;;;;8.10;5.87;;;;;;;16.94;30.75;101310.52;124688;1106;104227;-79
2021/03/06 10:02:23;;;;;;;9.73;6.90;;;;;;;16.40;30.69;101309.16;124714;1105;104262;-79
2021/03/06 10:04:51;;;;;;;11.50;7.00;;;;;;;15.59;31.07;101305.16;124773;1105;104178;-79
2021/03/06 10:07:21;;;;;;;11.43;7.07;;;;;;;14.90;31.66;101317.19;124733;1102;106106;-79
2021/03/06 10:09:48;;;;;;;10.87;7.03;;;;;;;14.36;31.85;101319.74;124723;1105;104047;-79
2021/03/06 10:12:16;;;;;;;13.37;8.10;;;;;;;13.94;32.24;101317.50;124747;1105;104130;-79
2021/03/06 10:14:49;;;;;;;10.50;6.87;;;;;;;13.70;32.74;101320.83;124763;1105;104159;-79
2021/03/06 10:17:24;;;;;;;8.80;5.70;;;;;;;13.23;32.10;101310.72;124785;1105;104127;-79
2021/03/06 10:19:55;;;;;;;10.80;5.90;;;;;;;12.97;32.79;101313.98;124826;1106;104188;-79
2021/03/06 10:22:23;;;;;;;10.37;5.67;;;;;;;13.24;32.79;101317.67;124700;1105;104018;-79
2021/03/06 10:24:55;;;;;;;10.20;5.95;;;;;;;13.44;31.76;101324.14;124714;1106;104271;-79
2021/03/06 10:27:43;;;;;;;10.27;5.80;;;;;;;13.58;32.68;101322.02;124737;1105;104278;-79
2021/03/06 10:30:18;;;;;;;9.30;6.03;;;;;;;13.55;31.65;101329.97;124790;1102;104151;-79
2021/03/06 10:32:48;;;;;;;11.27;6.10;;;;;;;13.57;33.05;101322.92;124724;1103;104210;-79
2021/03/06 10:35:42;;;;;;;9.90;6.30;;;;;;;13.68;33.15;101323.50;124812;1102;104156;-79
2021/03/06 10:38:24;;;;;;;12.53;6.17;;;;;;;13.79;31.67;101324.04;124814;1105;105355;-79
2021/03/06 10:40:55;;;;;;;10.13;5.80;;;;;;;13.73;31.79;101315.50;124694;1105;104230;-79
2021/03/06 10:43:26;;;;;;;10.33;5.90;;;;;;;13.82;32.56;101305.63;124768;1105;103291;-79
2021/03/06 10:45:54;;;;;;;11.97;6.57;;;;;;;14.03;33.34;101306.75;124740;1102;104219;-79
2021/03/06 10:48:33;;;;;;;11.03;5.70;;;;;;;13.94;31.25;101298.28;124730;1105;104226;-79
2021/03/06 10:51:00;;;;;;;10.77;6.33;;;;;;;13.75;32.20;101288.33;124773;1103;104606;-79
2021/03/06 10:53:28;;;;;;;11.80;6.33;;;;;;;13.59;31.71;101287.04;124696;1105;104226;-79
2021/03/06 10:55:55;;;;;;;9.85;6.03;;;;;;;13.44;33.25;101295.32;124738;1102;102507;-79
2021/03/06 10:58:47;;;;;;;8.90;5.63;;;;;;;13.28;32.06;101290.52;124715;1105;104191;-79
2021/03/06 11:01:33;;;;;;;8.50;5.73;;;;;;;13.11;33.25;101290.07;124665;1105;104063;-79
2021/03/06 11:04:01;;;;;;;9.53;5.40;;;;;;;13.04;33.40;101293.73;124724;1105;104548;-79
2021/03/06 11:06:29;;;;;;;8.53;5.43;;;;;;;12.91;32.57;101263.50;124779;1105;104242;-79
2021/03/06 11:09:02;;;;;;;8.80;5.23;;;;;;;12.63;32.53;101277.30;124763;1105;103535;-79
2021/03/06 11:11:48;;;;;;;9.90;5.13;;;;;;;12.50;32.96;101269.77;124755;1105;104272;-79
2021/03/06 11:14:26;;;;;;;8.27;4.77;;;;;;;12.43;34.52;101262.97;124713;1102;104274;-79
2021/03/06 11:16:55;;;;;;;8.27;5.17;;;;;;;12.34;33.64;101253.56;124808;1103;104226;-79
2021/03/06 11:19:23;;;;;;;6.50;4.40;;;;;;;12.21;34.23;101247.78;124831;1105;104149;-79
2021/03/06 11:21:50;;;;;;;8.10;4.47;;;;;;;12.21;33.92;101249.50;124676;1105;104268;-79
2021/03/06 11:24:18;;;;;;;7.08;4.08;;;;;;;12.14;34.48;101250.55;124709;1105;104150;-79